Suzuka, Japan
Current Conditions -  °F | °C
As of 3:30 AM on Friday 28 Nov 2014 (Local Time) from RJGG Reporting Station
Broken Clouds Broken Clouds  
Wind Chill: 52°   Ceiling: 4000
Heat Index: 52°   Visibility: 6mi
Dew Point: 46°   Wind: 13mph
Humidity: 82%   Direction: 350°N
Pressure: 30.24"   Gusts: NA
Location:  34.88°N, 136.58°E
Report Text: RJGG 271830Z 35011KT 9999 FEW030 BKN040 BKN060 11/08 Q1024 NOSIG
Loading
Personal Weather Stations






























Interactive Weather Map New forecast layout! Learn more

10-Day Weather Forecast

Advertisements
Track Severe Weather on mobile